sensor_id;sensor_type;location;lat;lon;timestamp;P1;durP1;ratioP1;P2;durP2;ratioP2
58581;SDS011;44361;51.476;5.700;2022-09-28T00:00:39;9.95;;;6.20;;
58581;SDS011;44361;51.476;5.700;2022-09-28T00:03:06;11.70;;;7.28;;
58581;SDS011;44361;51.476;5.700;2022-09-28T00:05:32;11.95;;;7.25;;
58581;SDS011;44361;51.476;5.700;2022-09-28T00:07:58;12.88;;;7.43;;
58581;SDS011;44361;51.476;5.700;2022-09-28T00:10:23;14.63;;;7.68;;
58581;SDS011;44361;51.476;5.700;2022-09-28T00:12:49;14.88;;;8.45;;
58581;SDS011;44361;51.476;5.700;2022-09-28T00:15:16;14.00;;;8.15;;
58581;SDS011;44361;51.476;5.700;2022-09-28T00:17:42;14.48;;;8.02;;
58581;SDS011;44361;51.476;5.700;2022-09-28T00:20:11;11.40;;;8.13;;
58581;SDS011;44361;51.476;5.700;2022-09-28T00:22:37;15.40;;;9.13;;
58581;SDS011;44361;51.476;5.700;2022-09-28T00:25:03;16.20;;;9.02;;
58581;SDS011;44361;51.476;5.700;2022-09-28T00:27:30;14.55;;;9.48;;
58581;SDS011;44361;51.476;5.700;2022-09-28T00:29:55;16.48;;;9.32;;
58581;SDS011;44361;51.476;5.700;2022-09-28T00:32:21;14.52;;;9.10;;
58581;SDS011;44361;51.476;5.700;2022-09-28T00:34:49;14.57;;;9.27;;
58581;SDS011;44361;51.476;5.700;2022-09-28T00:37:15;16.20;;;9.23;;
58581;SDS011;44361;51.476;5.700;2022-09-28T00:39:43;15.55;;;8.88;;
58581;SDS011;44361;51.476;5.700;2022-09-28T00:42:13;15.30;;;9.68;;
58581;SDS011;44361;51.476;5.700;2022-09-28T00:44:48;16.38;;;9.25;;
58581;SDS011;44361;51.476;5.700;2022-09-28T00:52:57;13.80;;;8.80;;
58581;SDS011;44361;51.476;5.700;2022-09-28T00:55:50;13.73;;;8.20;;
58581;SDS011;44361;51.476;5.700;2022-09-28T00:58:29;13.65;;;9.38;;
58581;SDS011;44361;51.476;5.700;2022-09-28T01:00:58;13.93;;;9.32;;
58581;SDS011;44361;51.476;5.700;2022-09-28T01:03:25;14.80;;;9.00;;
58581;SDS011;44361;51.476;5.700;2022-09-28T01:05:53;13.82;;;8.95;;
58581;SDS011;44361;51.476;5.700;2022-09-28T01:08:21;14.10;;;8.70;;
58581;SDS011;44361;51.476;5.700;2022-09-28T01:10:48;16.48;;;9.82;;
58581;SDS011;44361;51.476;5.700;2022-09-28T01:13:15;13.23;;;9.25;;
58581;SDS011;44361;51.476;5.700;2022-09-28T01:15:47;15.65;;;10.20;;
58581;SDS011;44361;51.476;5.700;2022-09-28T01:18:34;18.13;;;9.65;;
58581;SDS011;44361;51.476;5.700;2022-09-28T01:21:09;13.20;;;9.00;;
58581;SDS011;44361;51.476;5.700;2022-09-28T01:31:51;24.00;;;11.10;;
58581;SDS011;44361;51.476;5.700;2022-09-28T01:34:36;16.50;;;11.27;;
58581;SDS011;44361;51.476;5.700;2022-09-28T01:37:08;19.27;;;10.30;;
58581;SDS011;44361;51.476;5.700;2022-09-28T01:39:39;15.88;;;10.20;;
58581;SDS011;44361;51.476;5.700;2022-09-28T01:42:08;16.70;;;9.75;;
58581;SDS011;44361;51.476;5.700;2022-09-28T01:44:46;17.50;;;10.70;;
58581;SDS011;44361;51.476;5.700;2022-09-28T01:47:14;17.83;;;10.32;;
58581;SDS011;44361;51.476;5.700;2022-09-28T01:49:48;18.05;;;10.05;;
58581;SDS011;44361;51.476;5.700;2022-09-28T01:54:56;17.98;;;10.15;;
58581;SDS011;44361;51.476;5.700;2022-09-28T01:57:52;20.33;;;11.07;;
58581;SDS011;44361;51.476;5.700;2022-09-28T02:00:21;18.85;;;10.55;;
58581;SDS011;44361;51.476;5.700;2022-09-28T02:02:57;18.10;;;11.23;;
58581;SDS011;44361;51.476;5.700;2022-09-28T02:05:35;18.63;;;11.75;;
58581;SDS011;44361;51.476;5.700;2022-09-28T02:08:12;20.67;;;12.82;;
58581;SDS011;44361;51.476;5.700;2022-09-28T02:10:51;23.42;;;13.25;;
58581;SDS011;44361;51.476;5.700;2022-09-28T02:13:26;24.17;;;12.95;;
58581;SDS011;44361;51.476;5.700;2022-09-28T02:19:15;24.60;;;13.63;;
58581;SDS011;44361;51.476;5.700;2022-09-28T02:22:05;25.10;;;14.70;;
58581;SDS011;44361;51.476;5.700;2022-09-28T02:24:54;23.58;;;14.18;;
58581;SDS011;44361;51.476;5.700;2022-09-28T02:30:05;28.00;;;17.42;;
58581;SDS011;44361;51.476;5.700;2022-09-28T02:32:32;27.13;;;15.80;;
58581;SDS011;44361;51.476;5.700;2022-09-28T02:35:05;29.42;;;17.00;;
58581;SDS011;44361;51.476;5.700;2022-09-28T02:37:33;29.75;;;17.48;;
58581;SDS011;44361;51.476;5.700;2022-09-28T02:39:58;31.05;;;18.23;;
58581;SDS011;44361;51.476;5.700;2022-09-28T02:42:37;36.20;;;18.15;;
58581;SDS011;44361;51.476;5.700;2022-09-28T02:45:31;32.78;;;17.38;;
58581;SDS011;44361;51.476;5.700;2022-09-28T03:03:53;29.85;;;14.52;;
58581;SDS011;44361;51.476;5.700;2022-09-28T03:06:22;21.40;;;13.00;;
58581;SDS011;44361;51.476;5.700;2022-09-28T03:11:46;23.08;;;12.90;;
58581;SDS011;44361;51.476;5.700;2022-09-28T03:14:16;24.55;;;12.73;;
58581;SDS011;44361;51.476;5.700;2022-09-28T03:16:43;24.40;;;12.68;;
58581;SDS011;44361;51.476;5.700;2022-09-28T03:19:10;23.20;;;12.35;;
58581;SDS011;44361;51.476;5.700;2022-09-28T03:21:36;22.02;;;12.40;;
58581;SDS011;44361;51.476;5.700;2022-09-28T03:24:02;19.08;;;11.77;;
58581;SDS011;44361;51.476;5.700;2022-09-28T03:26:29;21.83;;;11.48;;
58581;SDS011;44361;51.476;5.700;2022-09-28T03:28:55;22.55;;;10.60;;
58581;SDS011;44361;51.476;5.700;2022-09-28T03:31:21;20.80;;;11.30;;
58581;SDS011;44361;51.476;5.700;2022-09-28T03:33:47;18.30;;;10.50;;
58581;SDS011;44361;51.476;5.700;2022-09-28T03:36:14;18.98;;;10.55;;
58581;SDS011;44361;51.476;5.700;2022-09-28T03:38:40;18.55;;;9.80;;
58581;SDS011;44361;51.476;5.700;2022-09-28T03:41:05;16.75;;;9.75;;
58581;SDS011;44361;51.476;5.700;2022-09-28T03:43:31;19.67;;;10.00;;
58581;SDS011;44361;51.476;5.700;2022-09-28T03:45:58;15.70;;;9.27;;
58581;SDS011;44361;51.476;5.700;2022-09-28T03:48:29;15.00;;;8.30;;
58581;SDS011;44361;51.476;5.700;2022-09-28T03:50:56;14.70;;;9.13;;
58581;SDS011;44361;51.476;5.700;2022-09-28T03:53:23;13.82;;;8.63;;
58581;SDS011;44361;51.476;5.700;2022-09-28T03:55:50;15.95;;;9.27;;
58581;SDS011;44361;51.476;5.700;2022-09-28T03:58:19;12.38;;;7.68;;
58581;SDS011;44361;51.476;5.700;2022-09-28T04:00:45;15.63;;;8.35;;
58581;SDS011;44361;51.476;5.700;2022-09-28T04:03:11;17.27;;;7.65;;
58581;SDS011;44361;51.476;5.700;2022-09-28T04:05:37;12.93;;;6.90;;
58581;SDS011;44361;51.476;5.700;2022-09-28T04:08:02;16.70;;;7.80;;
58581;SDS011;44361;51.476;5.700;2022-09-28T04:10:28;13.88;;;7.72;;
58581;SDS011;44361;51.476;5.700;2022-09-28T04:12:54;11.32;;;7.28;;
58581;SDS011;44361;51.476;5.700;2022-09-28T04:15:21;9.45;;;6.55;;
58581;SDS011;44361;51.476;5.700;2022-09-28T04:17:48;10.93;;;6.63;;
58581;SDS011;44361;51.476;5.700;2022-09-28T04:20:14;13.93;;;7.20;;
58581;SDS011;44361;51.476;5.700;2022-09-28T04:22:40;11.20;;;6.55;;
58581;SDS011;44361;51.476;5.700;2022-09-28T04:25:05;10.82;;;6.53;;
58581;SDS011;44361;51.476;5.700;2022-09-28T04:27:31;11.18;;;6.00;;
58581;SDS011;44361;51.476;5.700;2022-09-28T04:30:15;9.50;;;5.80;;
58581;SDS011;44361;51.476;5.700;2022-09-28T04:32:42;8.82;;;5.57;;
58581;SDS011;44361;51.476;5.700;2022-09-28T04:35:08;12.80;;;5.90;;
58581;SDS011;44361;51.476;5.700;2022-09-28T04:37:35;9.35;;;5.32;;
58581;SDS011;44361;51.476;5.700;2022-09-28T04:40:00;8.88;;;5.32;;
58581;SDS011;44361;51.476;5.700;2022-09-28T04:42:26;10.40;;;5.72;;
58581;SDS011;44361;51.476;5.700;2022-09-28T04:44:51;8.98;;;5.43;;
58581;SDS011;44361;51.476;5.700;2022-09-28T04:47:17;10.27;;;4.78;;
58581;SDS011;44361;51.476;5.700;2022-09-28T04:49:42;8.25;;;4.82;;
58581;SDS011;44361;51.476;5.700;2022-09-28T04:52:08;8.30;;;5.07;;
58581;SDS011;44361;51.476;5.700;2022-09-28T04:54:33;9.30;;;4.97;;
58581;SDS011;44361;51.476;5.700;2022-09-28T04:56:59;8.48;;;4.93;;
58581;SDS011;44361;51.476;5.700;2022-09-28T04:59:25;8.75;;;5.25;;
58581;SDS011;44361;51.476;5.700;2022-09-28T05:01:51;8.18;;;5.03;;
58581;SDS011;44361;51.476;5.700;2022-09-28T05:04:17;8.40;;;4.25;;
58581;SDS011;44361;51.476;5.700;2022-09-28T05:06:43;10.48;;;4.90;;
58581;SDS011;44361;51.476;5.700;2022-09-28T05:09:08;10.20;;;5.15;;
58581;SDS011;44361;51.476;5.700;2022-09-28T05:11:34;11.20;;;5.30;;
58581;SDS011;44361;51.476;5.700;2022-09-28T05:14:00;10.52;;;5.15;;
58581;SDS011;44361;51.476;5.700;2022-09-28T05:16:25;11.27;;;5.80;;
58581;SDS011;44361;51.476;5.700;2022-09-28T05:18:55;11.23;;;5.68;;
58581;SDS011;44361;51.476;5.700;2022-09-28T05:21:21;11.73;;;5.97;;
58581;SDS011;44361;51.476;5.700;2022-09-28T05:23:49;9.77;;;6.53;;
58581;SDS011;44361;51.476;5.700;2022-09-28T05:26:14;11.45;;;7.32;;
58581;SDS011;44361;51.476;5.700;2022-09-28T05:28:40;11.65;;;7.50;;
58581;SDS011;44361;51.476;5.700;2022-09-28T05:31:06;12.30;;;7.45;;
58581;SDS011;44361;51.476;5.700;2022-09-28T05:33:32;10.70;;;7.05;;
58581;SDS011;44361;51.476;5.700;2022-09-28T05:35:58;18.92;;;7.35;;
58581;SDS011;44361;51.476;5.700;2022-09-28T05:38:24;11.35;;;7.65;;
58581;SDS011;44361;51.476;5.700;2022-09-28T05:40:49;11.98;;;7.25;;
58581;SDS011;44361;51.476;5.700;2022-09-28T05:43:15;18.17;;;8.20;;
58581;SDS011;44361;51.476;5.700;2022-09-28T05:45:41;12.30;;;7.50;;
58581;SDS011;44361;51.476;5.700;2022-09-28T05:48:06;18.23;;;7.60;;
58581;SDS011;44361;51.476;5.700;2022-09-28T05:50:32;12.63;;;7.78;;
58581;SDS011;44361;51.476;5.700;2022-09-28T05:55:23;14.43;;;7.50;;
58581;SDS011;44361;51.476;5.700;2022-09-28T05:57:49;12.27;;;7.68;;
58581;SDS011;44361;51.476;5.700;2022-09-28T06:00:14;11.90;;;8.00;;
58581;SDS011;44361;51.476;5.700;2022-09-28T06:02:40;13.30;;;8.07;;
58581;SDS011;44361;51.476;5.700;2022-09-28T06:05:05;13.88;;;7.82;;
58581;SDS011;44361;51.476;5.700;2022-09-28T06:07:31;16.45;;;7.60;;
58581;SDS011;44361;51.476;5.700;2022-09-28T06:09:57;13.10;;;8.27;;
58581;SDS011;44361;51.476;5.700;2022-09-28T06:12:23;16.08;;;9.55;;
58581;SDS011;44361;51.476;5.700;2022-09-28T06:14:49;18.13;;;8.65;;
58581;SDS011;44361;51.476;5.700;2022-09-28T06:17:15;19.08;;;8.68;;
58581;SDS011;44361;51.476;5.700;2022-09-28T06:19:40;17.00;;;10.05;;
58581;SDS011;44361;51.476;5.700;2022-09-28T06:22:06;14.95;;;9.30;;
58581;SDS011;44361;51.476;5.700;2022-09-28T06:24:32;14.65;;;9.23;;
58581;SDS011;44361;51.476;5.700;2022-09-28T06:26:58;19.10;;;9.98;;
58581;SDS011;44361;51.476;5.700;2022-09-28T06:29:23;13.93;;;9.73;;
58581;SDS011;44361;51.476;5.700;2022-09-28T06:31:49;17.65;;;10.20;;
58581;SDS011;44361;51.476;5.700;2022-09-28T06:34:15;17.08;;;10.52;;
58581;SDS011;44361;51.476;5.700;2022-09-28T06:36:41;15.13;;;10.43;;
58581;SDS011;44361;51.476;5.700;2022-09-28T06:39:06;17.90;;;10.20;;
58581;SDS011;44361;51.476;5.700;2022-09-28T06:41:32;17.63;;;9.93;;
58581;SDS011;44361;51.476;5.700;2022-09-28T06:43:57;15.98;;;10.32;;
58581;SDS011;44361;51.476;5.700;2022-09-28T06:46:23;16.35;;;9.32;;
58581;SDS011;44361;51.476;5.700;2022-09-28T06:48:49;21.50;;;9.85;;
58581;SDS011;44361;51.476;5.700;2022-09-28T06:51:15;16.95;;;10.20;;
58581;SDS011;44361;51.476;5.700;2022-09-28T06:53:41;17.52;;;10.68;;
58581;SDS011;44361;51.476;5.700;2022-09-28T06:56:09;17.13;;;10.55;;
58581;SDS011;44361;51.476;5.700;2022-09-28T06:58:35;21.17;;;10.15;;
58581;SDS011;44361;51.476;5.700;2022-09-28T07:01:01;17.70;;;10.75;;
58581;SDS011;44361;51.476;5.700;2022-09-28T07:03:27;20.88;;;11.18;;
58581;SDS011;44361;51.476;5.700;2022-09-28T07:05:54;22.45;;;11.23;;
58581;SDS011;44361;51.476;5.700;2022-09-28T07:08:21;20.70;;;11.73;;
58581;SDS011;44361;51.476;5.700;2022-09-28T07:10:48;19.80;;;11.07;;
58581;SDS011;44361;51.476;5.700;2022-09-28T07:13:26;17.58;;;10.80;;
58581;SDS011;44361;51.476;5.700;2022-09-28T07:15:55;21.42;;;10.82;;
58581;SDS011;44361;51.476;5.700;2022-09-28T07:18:22;17.70;;;11.02;;
58581;SDS011;44361;51.476;5.700;2022-09-28T07:20:47;17.45;;;10.85;;
58581;SDS011;44361;51.476;5.700;2022-09-28T07:23:13;17.10;;;11.15;;
58581;SDS011;44361;51.476;5.700;2022-09-28T07:25:39;19.25;;;10.32;;
58581;SDS011;44361;51.476;5.700;2022-09-28T07:28:09;17.20;;;10.70;;
58581;SDS011;44361;51.476;5.700;2022-09-28T07:30:35;16.52;;;10.15;;
58581;SDS011;44361;51.476;5.700;2022-09-28T07:33:02;13.82;;;9.48;;
58581;SDS011;44361;51.476;5.700;2022-09-28T07:35:30;13.90;;;9.50;;
58581;SDS011;44361;51.476;5.700;2022-09-28T07:38:02;15.23;;;10.20;;
58581;SDS011;44361;51.476;5.700;2022-09-28T07:40:29;15.57;;;9.18;;
58581;SDS011;44361;51.476;5.700;2022-09-28T07:43:14;14.93;;;8.73;;
58581;SDS011;44361;51.476;5.700;2022-09-28T07:45:44;12.27;;;8.38;;
58581;SDS011;44361;51.476;5.700;2022-09-28T07:48:15;14.93;;;8.65;;
58581;SDS011;44361;51.476;5.700;2022-09-28T07:50:41;13.45;;;9.27;;
58581;SDS011;44361;51.476;5.700;2022-09-28T07:53:22;11.70;;;8.40;;
58581;SDS011;44361;51.476;5.700;2022-09-28T07:55:52;12.35;;;7.13;;
58581;SDS011;44361;51.476;5.700;2022-09-28T07:58:19;13.18;;;8.00;;
58581;SDS011;44361;51.476;5.700;2022-09-28T08:00:45;15.13;;;7.32;;
58581;SDS011;44361;51.476;5.700;2022-09-28T08:03:12;10.55;;;6.63;;
58581;SDS011;44361;51.476;5.700;2022-09-28T08:05:42;9.35;;;6.22;;
58581;SDS011;44361;51.476;5.700;2022-09-28T08:08:08;9.23;;;6.63;;
58581;SDS011;44361;51.476;5.700;2022-09-28T08:10:34;9.25;;;6.32;;
58581;SDS011;44361;51.476;5.700;2022-09-28T08:13:01;9.73;;;6.15;;
58581;SDS011;44361;51.476;5.700;2022-09-28T08:15:27;9.35;;;6.47;;
58581;SDS011;44361;51.476;5.700;2022-09-28T08:18:01;10.20;;;5.13;;
58581;SDS011;44361;51.476;5.700;2022-09-28T08:20:28;7.88;;;4.45;;
58581;SDS011;44361;51.476;5.700;2022-09-28T08:23:12;9.85;;;4.50;;
58581;SDS011;44361;51.476;5.700;2022-09-28T08:25:38;11.23;;;4.97;;
58581;SDS011;44361;51.476;5.700;2022-09-28T08:28:04;7.57;;;3.70;;
58581;SDS011;44361;51.476;5.700;2022-09-28T08:30:31;6.20;;;4.03;;
58581;SDS011;44361;51.476;5.700;2022-09-28T08:32:56;8.23;;;4.00;;
58581;SDS011;44361;51.476;5.700;2022-09-28T08:35:22;10.68;;;3.70;;
58581;SDS011;44361;51.476;5.700;2022-09-28T08:37:49;5.78;;;3.42;;
58581;SDS011;44361;51.476;5.700;2022-09-28T08:40:19;8.10;;;3.90;;
58581;SDS011;44361;51.476;5.700;2022-09-28T08:42:57;8.95;;;3.70;;
58581;SDS011;44361;51.476;5.700;2022-09-28T08:45:26;6.93;;;3.90;;
58581;SDS011;44361;51.476;5.700;2022-09-28T08:48:12;5.88;;;3.33;;
58581;SDS011;44361;51.476;5.700;2022-09-28T08:51:13;6.72;;;3.00;;
58581;SDS011;44361;51.476;5.700;2022-09-28T08:54:03;5.60;;;3.58;;
58581;SDS011;44361;51.476;5.700;2022-09-28T08:56:46;6.40;;;4.47;;
58581;SDS011;44361;51.476;5.700;2022-09-28T08:59:17;6.13;;;3.65;;
58581;SDS011;44361;51.476;5.700;2022-09-28T09:01:46;6.05;;;3.75;;
58581;SDS011;44361;51.476;5.700;2022-09-28T09:04:22;5.35;;;3.38;;
58581;SDS011;44361;51.476;5.700;2022-09-28T09:09:42;5.30;;;3.28;;
58581;SDS011;44361;51.476;5.700;2022-09-28T09:21:09;4.80;;;3.00;;
58581;SDS011;44361;51.476;5.700;2022-09-28T09:23:55;4.97;;;3.38;;
58581;SDS011;44361;51.476;5.700;2022-09-28T09:29:25;5.00;;;3.22;;
58581;SDS011;44361;51.476;5.700;2022-09-28T09:46:09;3.17;;;2.20;;
58581;SDS011;44361;51.476;5.700;2022-09-28T09:48:37;4.40;;;2.30;;
58581;SDS011;44361;51.476;5.700;2022-09-28T09:54:10;4.30;;;2.03;;
58581;SDS011;44361;51.476;5.700;2022-09-28T09:56:58;2.47;;;2.00;;
58581;SDS011;44361;51.476;5.700;2022-09-28T09:59:33;2.90;;;1.98;;
58581;SDS011;44361;51.476;5.700;2022-09-28T10:05:01;4.22;;;2.33;;
58581;SDS011;44361;51.476;5.700;2022-09-28T10:10:34;10.43;;;2.80;;
58581;SDS011;44361;51.476;5.700;2022-09-28T10:13:02;5.18;;;3.47;;
58581;SDS011;44361;51.476;5.700;2022-09-28T10:15:30;3.85;;;2.28;;
58581;SDS011;44361;51.476;5.700;2022-09-28T10:17:58;9.93;;;5.78;;
58581;SDS011;44361;51.476;5.700;2022-09-28T10:20:28;4.80;;;2.53;;
58581;SDS011;44361;51.476;5.700;2022-09-28T10:22:58;4.13;;;2.22;;
58581;SDS011;44361;51.476;5.700;2022-09-28T10:25:27;3.33;;;1.90;;
58581;SDS011;44361;51.476;5.700;2022-09-28T10:27:55;3.85;;;2.05;;
58581;SDS011;44361;51.476;5.700;2022-09-28T10:30:24;3.60;;;1.80;;
58581;SDS011;44361;51.476;5.700;2022-09-28T10:32:50;6.28;;;1.92;;
58581;SDS011;44361;51.476;5.700;2022-09-28T10:40:45;4.30;;;2.15;;
58581;SDS011;44361;51.476;5.700;2022-09-28T10:43:16;5.55;;;1.90;;
58581;SDS011;44361;51.476;5.700;2022-09-28T10:45:47;8.38;;;2.15;;
58581;SDS011;44361;51.476;5.700;2022-09-28T10:48:23;2.45;;;1.35;;
58581;SDS011;44361;51.476;5.700;2022-09-28T10:51:06;2.22;;;1.30;;
58581;SDS011;44361;51.476;5.700;2022-09-28T10:53:32;5.03;;;1.67;;
58581;SDS011;44361;51.476;5.700;2022-09-28T10:58:30;4.32;;;1.63;;
58581;SDS011;44361;51.476;5.700;2022-09-28T11:01:11;5.00;;;1.63;;
58581;SDS011;44361;51.476;5.700;2022-09-28T11:03:51;2.78;;;1.42;;
58581;SDS011;44361;51.476;5.700;2022-09-28T11:09:03;3.40;;;1.95;;
58581;SDS011;44361;51.476;5.700;2022-09-28T11:11:39;4.68;;;1.80;;
58581;SDS011;44361;51.476;5.700;2022-09-28T11:14:11;2.67;;;1.50;;
58581;SDS011;44361;51.476;5.700;2022-09-28T11:19:56;7.68;;;1.80;;
58581;SDS011;44361;51.476;5.700;2022-09-28T11:27:41;3.35;;;1.15;;
58581;SDS011;44361;51.476;5.700;2022-09-28T11:30:38;4.32;;;1.30;;
58581;SDS011;44361;51.476;5.700;2022-09-28T11:33:24;3.50;;;1.20;;
58581;SDS011;44361;51.476;5.700;2022-09-28T11:38:35;4.13;;;1.52;;
58581;SDS011;44361;51.476;5.700;2022-09-28T11:49:43;4.38;;;2.00;;
58581;SDS011;44361;51.476;5.700;2022-09-28T11:52:16;6.53;;;2.10;;
58581;SDS011;44361;51.476;5.700;2022-09-28T11:57:36;5.80;;;1.98;;
58581;SDS011;44361;51.476;5.700;2022-09-28T12:00:06;4.13;;;1.58;;
58581;SDS011;44361;51.476;5.700;2022-09-28T12:02:44;3.72;;;1.40;;
58581;SDS011;44361;51.476;5.700;2022-09-28T12:05:33;5.05;;;1.15;;
58581;SDS011;44361;51.476;5.700;2022-09-28T12:13:13;2.47;;;1.05;;
58581;SDS011;44361;51.476;5.700;2022-09-28T12:15:59;3.33;;;1.00;;
58581;SDS011;44361;51.476;5.700;2022-09-28T12:18:37;2.97;;;1.10;;
58581;SDS011;44361;51.476;5.700;2022-09-28T12:21:27;4.38;;;1.23;;
58581;SDS011;44361;51.476;5.700;2022-09-28T12:24:08;4.65;;;1.40;;
58581;SDS011;44361;51.476;5.700;2022-09-28T12:26:47;4.68;;;1.50;;
58581;SDS011;44361;51.476;5.700;2022-09-28T12:29:17;2.13;;;1.30;;
58581;SDS011;44361;51.476;5.700;2022-09-28T12:31:54;2.50;;;1.05;;
58581;SDS011;44361;51.476;5.700;2022-09-28T12:34:29;2.67;;;1.10;;
58581;SDS011;44361;51.476;5.700;2022-09-28T12:37:03;1.77;;;1.08;;
58581;SDS011;44361;51.476;5.700;2022-09-28T12:42:27;9.88;;;1.98;;
58581;SDS011;44361;51.476;5.700;2022-09-28T12:45:18;4.53;;;1.80;;
58581;SDS011;44361;51.476;5.700;2022-09-28T12:50:46;5.15;;;1.88;;
58581;SDS011;44361;51.476;5.700;2022-09-28T12:56:10;5.80;;;2.15;;
58581;SDS011;44361;51.476;5.700;2022-09-28T12:59:04;4.70;;;1.65;;
58581;SDS011;44361;51.476;5.700;2022-09-28T13:10:59;4.15;;;2.38;;
58581;SDS011;44361;51.476;5.700;2022-09-28T13:16:38;2.75;;;2.10;;
58581;SDS011;44361;51.476;5.700;2022-09-28T13:19:19;2.97;;;1.60;;
58581;SDS011;44361;51.476;5.700;2022-09-28T13:25:00;5.35;;;2.00;;
58581;SDS011;44361;51.476;5.700;2022-09-28T13:27:30;3.67;;;1.58;;
58581;SDS011;44361;51.476;5.700;2022-09-28T13:30:22;1.65;;;0.82;;
58581;SDS011;44361;51.476;5.700;2022-09-28T13:32:49;1.33;;;0.80;;
58581;SDS011;44361;51.476;5.700;2022-09-28T13:35:18;2.33;;;0.73;;
58581;SDS011;44361;51.476;5.700;2022-09-28T13:37:44;3.58;;;0.80;;
58581;SDS011;44361;51.476;5.700;2022-09-28T13:40:10;2.83;;;0.90;;
58581;SDS011;44361;51.476;5.700;2022-09-28T13:56:03;3.50;;;0.75;;
58581;SDS011;44361;51.476;5.700;2022-09-28T13:58:46;2.53;;;1.00;;
58581;SDS011;44361;51.476;5.700;2022-09-28T14:01:22;6.88;;;1.08;;
58581;SDS011;44361;51.476;5.700;2022-09-28T14:03:55;3.03;;;0.65;;
58581;SDS011;44361;51.476;5.700;2022-09-28T14:06:36;2.25;;;0.70;;
58581;SDS011;44361;51.476;5.700;2022-09-28T14:11:56;1.33;;;0.40;;
58581;SDS011;44361;51.476;5.700;2022-09-28T14:25:45;3.15;;;0.45;;
58581;SDS011;44361;51.476;5.700;2022-09-28T14:31:27;1.23;;;0.45;;
58581;SDS011;44361;51.476;5.700;2022-09-28T14:33:58;1.52;;;0.55;;
58581;SDS011;44361;51.476;5.700;2022-09-28T14:39:20;3.67;;;0.57;;
58581;SDS011;44361;51.476;5.700;2022-09-28T14:42:13;3.25;;;0.40;;
58581;SDS011;44361;51.476;5.700;2022-09-28T14:49:59;0.75;;;0.30;;
58581;SDS011;44361;51.476;5.700;2022-09-28T14:52:48;1.23;;;0.50;;
58581;SDS011;44361;51.476;5.700;2022-09-28T14:55:18;2.65;;;0.35;;
58581;SDS011;44361;51.476;5.700;2022-09-28T14:57:56;3.53;;;0.47;;
58581;SDS011;44361;51.476;5.700;2022-09-28T15:00:24;1.77;;;0.45;;
58581;SDS011;44361;51.476;5.700;2022-09-28T15:02:52;2.17;;;0.40;;
58581;SDS011;44361;51.476;5.700;2022-09-28T15:05:27;2.75;;;0.60;;
58581;SDS011;44361;51.476;5.700;2022-09-28T15:07:56;2.72;;;0.50;;
58581;SDS011;44361;51.476;5.700;2022-09-28T15:10:29;3.53;;;0.80;;
58581;SDS011;44361;51.476;5.700;2022-09-28T15:15:26;0.85;;;0.50;;
58581;SDS011;44361;51.476;5.700;2022-09-28T15:20:46;3.65;;;0.40;;
58581;SDS011;44361;51.476;5.700;2022-09-28T15:23:24;2.13;;;0.38;;
58581;SDS011;44361;51.476;5.700;2022-09-28T15:26:00;3.75;;;0.90;;
58581;SDS011;44361;51.476;5.700;2022-09-28T15:28:27;3.38;;;1.20;;
58581;SDS011;44361;51.476;5.700;2022-09-28T15:31:00;5.70;;;3.05;;
58581;SDS011;44361;51.476;5.700;2022-09-28T15:33:28;5.87;;;1.90;;
58581;SDS011;44361;51.476;5.700;2022-09-28T15:36:27;2.22;;;1.20;;
58581;SDS011;44361;51.476;5.700;2022-09-28T15:38:59;4.60;;;1.40;;
58581;SDS011;44361;51.476;5.700;2022-09-28T15:41:27;2.80;;;0.77;;
58581;SDS011;44361;51.476;5.700;2022-09-28T15:46:42;2.80;;;1.35;;
58581;SDS011;44361;51.476;5.700;2022-09-28T15:50:00;3.08;;;0.63;;
58581;SDS011;44361;51.476;5.700;2022-09-28T15:52:00;2.17;;;0.57;;
58581;SDS011;44361;51.476;5.700;2022-09-28T15:54:27;4.13;;;0.60;;
58581;SDS011;44361;51.476;5.700;2022-09-28T15:57:00;1.77;;;0.57;;
58581;SDS011;44361;51.476;5.700;2022-09-28T16:02:09;1.00;;;0.70;;
58581;SDS011;44361;51.476;5.700;2022-09-28T16:04:45;5.43;;;3.58;;
58581;SDS011;44361;51.476;5.700;2022-09-28T16:12:22;2.67;;;0.95;;
58581;SDS011;44361;51.476;5.700;2022-09-28T16:14:55;1.48;;;0.70;;
58581;SDS011;44361;51.476;5.700;2022-09-28T16:17:30;3.47;;;0.82;;
58581;SDS011;44361;51.476;5.700;2022-09-28T16:19:59;2.58;;;1.40;;
58581;SDS011;44361;51.476;5.700;2022-09-28T16:22:41;1.98;;;0.47;;
58581;SDS011;44361;51.476;5.700;2022-09-28T16:25:13;1.30;;;0.65;;
58581;SDS011;44361;51.476;5.700;2022-09-28T16:27:43;2.25;;;0.63;;
58581;SDS011;44361;51.476;5.700;2022-09-28T16:30:22;0.90;;;0.43;;
58581;SDS011;44361;51.476;5.700;2022-09-28T16:32:57;0.88;;;0.30;;
58581;SDS011;44361;51.476;5.700;2022-09-28T16:35:31;1.13;;;0.50;;
58581;SDS011;44361;51.476;5.700;2022-09-28T16:38:01;1.30;;;0.40;;
58581;SDS011;44361;51.476;5.700;2022-09-28T16:40:30;2.92;;;0.60;;
58581;SDS011;44361;51.476;5.700;2022-09-28T16:42:57;6.00;;;3.03;;
58581;SDS011;44361;51.476;5.700;2022-09-28T16:45:26;2.10;;;0.50;;
58581;SDS011;44361;51.476;5.700;2022-09-28T16:47:54;2.08;;;0.50;;
58581;SDS011;44361;51.476;5.700;2022-09-28T16:50:20;1.38;;;0.60;;
58581;SDS011;44361;51.476;5.700;2022-09-28T16:53:10;2.00;;;0.70;;
58581;SDS011;44361;51.476;5.700;2022-09-28T16:55:57;0.90;;;0.70;;
58581;SDS011;44361;51.476;5.700;2022-09-28T16:58:23;2.95;;;1.10;;
58581;SDS011;44361;51.476;5.700;2022-09-28T17:00:50;1.70;;;1.00;;
58581;SDS011;44361;51.476;5.700;2022-09-28T17:03:18;3.42;;;0.80;;
58581;SDS011;44361;51.476;5.700;2022-09-28T17:05:44;2.80;;;0.70;;
58581;SDS011;44361;51.476;5.700;2022-09-28T17:08:12;2.83;;;0.90;;
58581;SDS011;44361;51.476;5.700;2022-09-28T17:11:00;4.43;;;0.75;;
58581;SDS011;44361;51.476;5.700;2022-09-28T17:13:27;1.33;;;0.98;;
58581;SDS011;44361;51.476;5.700;2022-09-28T17:15:57;4.28;;;1.70;;
58581;SDS011;44361;51.476;5.700;2022-09-28T17:18:28;2.42;;;1.80;;
58581;SDS011;44361;51.476;5.700;2022-09-28T17:20:56;3.58;;;2.13;;
58581;SDS011;44361;51.476;5.700;2022-09-28T17:23:27;6.97;;;2.60;;
58581;SDS011;44361;51.476;5.700;2022-09-28T17:25:52;3.80;;;1.40;;
58581;SDS011;44361;51.476;5.700;2022-09-28T17:28:20;3.67;;;2.03;;
58581;SDS011;44361;51.476;5.700;2022-09-28T17:30:48;3.22;;;2.17;;
58581;SDS011;44361;51.476;5.700;2022-09-28T17:33:14;7.82;;;2.50;;
58581;SDS011;44361;51.476;5.700;2022-09-28T17:35:40;6.05;;;3.65;;
58581;SDS011;44361;51.476;5.700;2022-09-28T17:38:08;5.00;;;3.75;;
58581;SDS011;44361;51.476;5.700;2022-09-28T17:40:38;6.95;;;4.68;;
58581;SDS011;44361;51.476;5.700;2022-09-28T17:43:04;7.82;;;3.80;;
58581;SDS011;44361;51.476;5.700;2022-09-28T17:45:30;5.55;;;2.35;;
58581;SDS011;44361;51.476;5.700;2022-09-28T17:47:57;6.68;;;2.75;;
58581;SDS011;44361;51.476;5.700;2022-09-28T17:50:24;5.25;;;2.80;;
58581;SDS011;44361;51.476;5.700;2022-09-28T17:52:52;4.57;;;2.50;;
58581;SDS011;44361;51.476;5.700;2022-09-28T17:55:19;3.28;;;1.70;;
58581;SDS011;44361;51.476;5.700;2022-09-28T17:57:44;3.22;;;1.65;;
58581;SDS011;44361;51.476;5.700;2022-09-28T18:00:10;3.17;;;1.50;;
58581;SDS011;44361;51.476;5.700;2022-09-28T18:02:37;2.35;;;1.50;;
58581;SDS011;44361;51.476;5.700;2022-09-28T18:05:02;3.33;;;2.22;;
58581;SDS011;44361;51.476;5.700;2022-09-28T18:07:29;3.28;;;2.15;;
58581;SDS011;44361;51.476;5.700;2022-09-28T18:09:55;3.15;;;2.10;;
58581;SDS011;44361;51.476;5.700;2022-09-28T18:12:22;4.15;;;2.60;;
58581;SDS011;44361;51.476;5.700;2022-09-28T18:14:48;4.53;;;3.00;;
58581;SDS011;44361;51.476;5.700;2022-09-28T18:17:14;5.93;;;3.35;;